sensor_id;sensor_type;location;lat;lon;timestamp;P1;durP1;ratioP1;P2;durP2;ratioP2
43801;SDS011;29429;51.074;13.764;2024-02-16T00:02:05;21.85;;;14.57;;
43801;SDS011;29429;51.074;13.764;2024-02-16T00:04:32;23.08;;;13.52;;
43801;SDS011;29429;51.074;13.764;2024-02-16T00:07:00;22.02;;;13.65;;
43801;SDS011;29429;51.074;13.764;2024-02-16T00:09:27;26.00;;;15.57;;
43801;SDS011;29429;51.074;13.764;2024-02-16T00:11:54;21.65;;;13.75;;
43801;SDS011;29429;51.074;13.764;2024-02-16T00:14:21;21.17;;;13.68;;
43801;SDS011;29429;51.074;13.764;2024-02-16T00:16:48;22.90;;;14.23;;
43801;SDS011;29429;51.074;13.764;2024-02-16T00:19:15;21.05;;;12.98;;
43801;SDS011;29429;51.074;13.764;2024-02-16T00:21:42;24.27;;;14.45;;
43801;SDS011;29429;51.074;13.764;2024-02-16T00:24:10;20.80;;;11.77;;
43801;SDS011;29429;51.074;13.764;2024-02-16T00:26:37;21.05;;;12.60;;
43801;SDS011;29429;51.074;13.764;2024-02-16T00:29:06;18.40;;;11.48;;
43801;SDS011;29429;51.074;13.764;2024-02-16T00:31:33;22.15;;;11.60;;
43801;SDS011;29429;51.074;13.764;2024-02-16T00:34:00;18.13;;;10.50;;
43801;SDS011;29429;51.074;13.764;2024-02-16T00:36:28;19.60;;;10.52;;
43801;SDS011;29429;51.074;13.764;2024-02-16T00:38:57;18.30;;;10.18;;
43801;SDS011;29429;51.074;13.764;2024-02-16T00:41:25;17.20;;;8.93;;
43801;SDS011;29429;51.074;13.764;2024-02-16T00:43:52;15.20;;;9.00;;
43801;SDS011;29429;51.074;13.764;2024-02-16T00:46:19;15.15;;;8.68;;
43801;SDS011;29429;51.074;13.764;2024-02-16T00:48:49;16.38;;;8.93;;
43801;SDS011;29429;51.074;13.764;2024-02-16T00:51:18;15.55;;;8.80;;
43801;SDS011;29429;51.074;13.764;2024-02-16T00:53:45;14.18;;;8.73;;
43801;SDS011;29429;51.074;13.764;2024-02-16T00:56:13;13.43;;;8.02;;
43801;SDS011;29429;51.074;13.764;2024-02-16T00:58:40;11.93;;;7.82;;
43801;SDS011;29429;51.074;13.764;2024-02-16T01:01:09;12.95;;;7.47;;
43801;SDS011;29429;51.074;13.764;2024-02-16T01:03:38;18.13;;;7.93;;
43801;SDS011;29429;51.074;13.764;2024-02-16T01:06:06;13.77;;;7.57;;
43801;SDS011;29429;51.074;13.764;2024-02-16T01:08:35;12.75;;;8.00;;
43801;SDS011;29429;51.074;13.764;2024-02-16T01:11:02;18.52;;;9.88;;
43801;SDS011;29429;51.074;13.764;2024-02-16T01:13:29;14.00;;;8.18;;
43801;SDS011;29429;51.074;13.764;2024-02-16T01:15:56;13.50;;;7.90;;
43801;SDS011;29429;51.074;13.764;2024-02-16T01:18:25;14.60;;;9.00;;
43801;SDS011;29429;51.074;13.764;2024-02-16T01:20:54;17.27;;;9.77;;
43801;SDS011;29429;51.074;13.764;2024-02-16T01:23:22;18.17;;;9.68;;
43801;SDS011;29429;51.074;13.764;2024-02-16T01:25:49;18.00;;;9.82;;
43801;SDS011;29429;51.074;13.764;2024-02-16T01:28:16;15.40;;;9.40;;
43801;SDS011;29429;51.074;13.764;2024-02-16T01:30:43;15.98;;;9.18;;
43801;SDS011;29429;51.074;13.764;2024-02-16T01:33:10;18.25;;;9.75;;
43801;SDS011;29429;51.074;13.764;2024-02-16T01:35:38;17.25;;;10.48;;
43801;SDS011;29429;51.074;13.764;2024-02-16T01:38:05;16.80;;;9.57;;
43801;SDS011;29429;51.074;13.764;2024-02-16T01:40:32;19.80;;;11.75;;
43801;SDS011;29429;51.074;13.764;2024-02-16T01:43:00;17.73;;;11.45;;
43801;SDS011;29429;51.074;13.764;2024-02-16T01:45:27;21.83;;;12.68;;
43801;SDS011;29429;51.074;13.764;2024-02-16T01:47:54;22.30;;;12.90;;
43801;SDS011;29429;51.074;13.764;2024-02-16T01:50:22;21.20;;;12.10;;
43801;SDS011;29429;51.074;13.764;2024-02-16T01:52:49;20.08;;;11.73;;
43801;SDS011;29429;51.074;13.764;2024-02-16T01:55:17;18.33;;;10.95;;
43801;SDS011;29429;51.074;13.764;2024-02-16T01:57:44;24.25;;;14.02;;
43801;SDS011;29429;51.074;13.764;2024-02-16T02:00:13;23.42;;;13.38;;
43801;SDS011;29429;51.074;13.764;2024-02-16T02:02:44;21.90;;;13.98;;
43801;SDS011;29429;51.074;13.764;2024-02-16T02:05:13;22.88;;;13.63;;
43801;SDS011;29429;51.074;13.764;2024-02-16T02:07:41;24.50;;;15.23;;
43801;SDS011;29429;51.074;13.764;2024-02-16T02:10:09;24.58;;;14.30;;
43801;SDS011;29429;51.074;13.764;2024-02-16T02:12:40;24.80;;;14.25;;
43801;SDS011;29429;51.074;13.764;2024-02-16T02:15:09;21.13;;;14.15;;
43801;SDS011;29429;51.074;13.764;2024-02-16T02:17:38;21.10;;;12.55;;
43801;SDS011;29429;51.074;13.764;2024-02-16T02:20:06;20.25;;;13.18;;
43801;SDS011;29429;51.074;13.764;2024-02-16T02:22:38;25.15;;;13.82;;
43801;SDS011;29429;51.074;13.764;2024-02-16T02:25:05;21.55;;;13.25;;
43801;SDS011;29429;51.074;13.764;2024-02-16T02:27:32;23.13;;;14.32;;
43801;SDS011;29429;51.074;13.764;2024-02-16T02:29:59;21.92;;;13.57;;
43801;SDS011;29429;51.074;13.764;2024-02-16T02:32:27;23.90;;;13.88;;
43801;SDS011;29429;51.074;13.764;2024-02-16T02:34:55;21.25;;;12.75;;
43801;SDS011;29429;51.074;13.764;2024-02-16T02:37:22;21.63;;;13.32;;
43801;SDS011;29429;51.074;13.764;2024-02-16T02:39:49;21.48;;;13.50;;
43801;SDS011;29429;51.074;13.764;2024-02-16T02:42:16;22.55;;;13.55;;
43801;SDS011;29429;51.074;13.764;2024-02-16T02:44:43;23.00;;;14.55;;
43801;SDS011;29429;51.074;13.764;2024-02-16T02:47:16;24.70;;;13.93;;
43801;SDS011;29429;51.074;13.764;2024-02-16T02:49:43;22.80;;;14.02;;
43801;SDS011;29429;51.074;13.764;2024-02-16T02:52:11;24.45;;;13.80;;
43801;SDS011;29429;51.074;13.764;2024-02-16T02:54:38;22.08;;;14.05;;
43801;SDS011;29429;51.074;13.764;2024-02-16T02:57:06;21.88;;;13.38;;
43801;SDS011;29429;51.074;13.764;2024-02-16T02:59:33;23.02;;;13.75;;
43801;SDS011;29429;51.074;13.764;2024-02-16T03:02:00;23.38;;;13.80;;
43801;SDS011;29429;51.074;13.764;2024-02-16T03:04:27;22.20;;;13.90;;
43801;SDS011;29429;51.074;13.764;2024-02-16T03:06:55;19.30;;;13.38;;
43801;SDS011;29429;51.074;13.764;2024-02-16T03:09:22;21.40;;;12.48;;
43801;SDS011;29429;51.074;13.764;2024-02-16T03:11:49;19.50;;;12.93;;
43801;SDS011;29429;51.074;13.764;2024-02-16T03:14:19;21.55;;;13.40;;
43801;SDS011;29429;51.074;13.764;2024-02-16T03:16:46;19.75;;;13.05;;
43801;SDS011;29429;51.074;13.764;2024-02-16T03:19:13;21.48;;;13.32;;
43801;SDS011;29429;51.074;13.764;2024-02-16T03:21:40;19.55;;;13.73;;
43801;SDS011;29429;51.074;13.764;2024-02-16T03:24:07;21.83;;;13.32;;
43801;SDS011;29429;51.074;13.764;2024-02-16T03:26:35;21.45;;;12.80;;
43801;SDS011;29429;51.074;13.764;2024-02-16T03:29:02;20.80;;;13.05;;
43801;SDS011;29429;51.074;13.764;2024-02-16T03:31:29;20.30;;;13.13;;
43801;SDS011;29429;51.074;13.764;2024-02-16T03:33:56;20.90;;;13.05;;
43801;SDS011;29429;51.074;13.764;2024-02-16T03:36:24;20.65;;;13.52;;
43801;SDS011;29429;51.074;13.764;2024-02-16T03:38:51;21.08;;;13.05;;
43801;SDS011;29429;51.074;13.764;2024-02-16T03:41:19;19.65;;;13.77;;
43801;SDS011;29429;51.074;13.764;2024-02-16T03:43:50;21.02;;;14.00;;
43801;SDS011;29429;51.074;13.764;2024-02-16T03:46:18;22.02;;;14.60;;
43801;SDS011;29429;51.074;13.764;2024-02-16T03:48:45;20.00;;;13.75;;
43801;SDS011;29429;51.074;13.764;2024-02-16T03:51:12;20.65;;;13.52;;
43801;SDS011;29429;51.074;13.764;2024-02-16T03:53:39;24.77;;;14.98;;
43801;SDS011;29429;51.074;13.764;2024-02-16T03:56:06;22.55;;;14.88;;
43801;SDS011;29429;51.074;13.764;2024-02-16T03:58:35;22.77;;;14.93;;
43801;SDS011;29429;51.074;13.764;2024-02-16T04:01:03;22.63;;;15.02;;
43801;SDS011;29429;51.074;13.764;2024-02-16T04:03:33;21.33;;;14.45;;
43801;SDS011;29429;51.074;13.764;2024-02-16T04:06:01;22.60;;;15.30;;
43801;SDS011;29429;51.074;13.764;2024-02-16T04:08:31;22.42;;;15.70;;
43801;SDS011;29429;51.074;13.764;2024-02-16T04:10:57;24.88;;;15.85;;
43801;SDS011;29429;51.074;13.764;2024-02-16T04:13:24;24.45;;;16.13;;
43801;SDS011;29429;51.074;13.764;2024-02-16T04:15:52;22.13;;;15.57;;
43801;SDS011;29429;51.074;13.764;2024-02-16T04:18:21;25.50;;;16.77;;
43801;SDS011;29429;51.074;13.764;2024-02-16T04:20:48;22.25;;;15.93;;
43801;SDS011;29429;51.074;13.764;2024-02-16T04:23:15;26.08;;;16.77;;
43801;SDS011;29429;51.074;13.764;2024-02-16T04:25:42;24.15;;;16.60;;
43801;SDS011;29429;51.074;13.764;2024-02-16T04:28:09;24.13;;;16.95;;
43801;SDS011;29429;51.074;13.764;2024-02-16T04:30:36;29.10;;;17.60;;
43801;SDS011;29429;51.074;13.764;2024-02-16T04:33:03;27.73;;;18.17;;
43801;SDS011;29429;51.074;13.764;2024-02-16T04:35:31;25.48;;;17.75;;
43801;SDS011;29429;51.074;13.764;2024-02-16T04:37:58;27.90;;;18.35;;
43801;SDS011;29429;51.074;13.764;2024-02-16T04:40:25;25.33;;;16.50;;
43801;SDS011;29429;51.074;13.764;2024-02-16T04:42:53;24.67;;;17.15;;
43801;SDS011;29429;51.074;13.764;2024-02-16T04:45:19;25.50;;;17.13;;
43801;SDS011;29429;51.074;13.764;2024-02-16T04:47:47;27.08;;;18.55;;
43801;SDS011;29429;51.074;13.764;2024-02-16T04:50:14;26.48;;;18.55;;
43801;SDS011;29429;51.074;13.764;2024-02-16T04:52:41;23.50;;;17.17;;
43801;SDS011;29429;51.074;13.764;2024-02-16T04:55:10;24.27;;;17.75;;
43801;SDS011;29429;51.074;13.764;2024-02-16T04:57:37;27.75;;;17.67;;
43801;SDS011;29429;51.074;13.764;2024-02-16T05:00:04;25.95;;;17.70;;
43801;SDS011;29429;51.074;13.764;2024-02-16T05:02:32;25.30;;;17.67;;
43801;SDS011;29429;51.074;13.764;2024-02-16T05:04:59;26.00;;;17.75;;
43801;SDS011;29429;51.074;13.764;2024-02-16T05:07:30;26.10;;;18.38;;
43801;SDS011;29429;51.074;13.764;2024-02-16T05:09:58;26.40;;;17.80;;
43801;SDS011;29429;51.074;13.764;2024-02-16T05:12:25;27.10;;;17.95;;
43801;SDS011;29429;51.074;13.764;2024-02-16T05:14:53;27.63;;;19.10;;
43801;SDS011;29429;51.074;13.764;2024-02-16T05:17:20;26.77;;;18.15;;
43801;SDS011;29429;51.074;13.764;2024-02-16T05:19:48;28.30;;;18.80;;
43801;SDS011;29429;51.074;13.764;2024-02-16T05:22:16;25.48;;;18.02;;
43801;SDS011;29429;51.074;13.764;2024-02-16T05:24:44;25.60;;;18.25;;
43801;SDS011;29429;51.074;13.764;2024-02-16T05:27:12;28.98;;;17.98;;
43801;SDS011;29429;51.074;13.764;2024-02-16T05:29:40;25.33;;;18.48;;
43801;SDS011;29429;51.074;13.764;2024-02-16T05:32:07;27.98;;;18.15;;
43801;SDS011;29429;51.074;13.764;2024-02-16T05:34:34;25.73;;;18.08;;
43801;SDS011;29429;51.074;13.764;2024-02-16T05:37:05;26.92;;;18.98;;
43801;SDS011;29429;51.074;13.764;2024-02-16T05:39:33;28.35;;;18.73;;
43801;SDS011;29429;51.074;13.764;2024-02-16T05:42:20;25.33;;;17.13;;
43801;SDS011;29429;51.074;13.764;2024-02-16T05:44:50;27.00;;;18.17;;
43801;SDS011;29429;51.074;13.764;2024-02-16T05:47:17;27.73;;;18.65;;
43801;SDS011;29429;51.074;13.764;2024-02-16T05:49:45;27.83;;;18.65;;
43801;SDS011;29429;51.074;13.764;2024-02-16T05:52:13;26.42;;;17.58;;
43801;SDS011;29429;51.074;13.764;2024-02-16T05:54:47;27.90;;;18.55;;
43801;SDS011;29429;51.074;13.764;2024-02-16T05:57:15;23.60;;;16.80;;
43801;SDS011;29429;51.074;13.764;2024-02-16T05:59:43;25.27;;;16.67;;
43801;SDS011;29429;51.074;13.764;2024-02-16T06:02:24;25.45;;;18.00;;
43801;SDS011;29429;51.074;13.764;2024-02-16T06:04:53;25.58;;;17.70;;
43801;SDS011;29429;51.074;13.764;2024-02-16T06:07:20;26.85;;;18.27;;
43801;SDS011;29429;51.074;13.764;2024-02-16T06:09:48;27.95;;;18.38;;
43801;SDS011;29429;51.074;13.764;2024-02-16T06:12:15;29.10;;;18.98;;
43801;SDS011;29429;51.074;13.764;2024-02-16T06:14:42;25.20;;;18.08;;
43801;SDS011;29429;51.074;13.764;2024-02-16T06:17:09;24.58;;;17.52;;
43801;SDS011;29429;51.074;13.764;2024-02-16T06:19:36;26.63;;;18.35;;
43801;SDS011;29429;51.074;13.764;2024-02-16T06:22:04;29.52;;;18.02;;
43801;SDS011;29429;51.074;13.764;2024-02-16T06:24:31;24.27;;;17.30;;
43801;SDS011;29429;51.074;13.764;2024-02-16T06:26:58;24.27;;;17.00;;
43801;SDS011;29429;51.074;13.764;2024-02-16T06:29:24;25.48;;;17.63;;
43801;SDS011;29429;51.074;13.764;2024-02-16T06:31:51;27.83;;;17.48;;
43801;SDS011;29429;51.074;13.764;2024-02-16T06:34:19;26.08;;;18.05;;
43801;SDS011;29429;51.074;13.764;2024-02-16T06:36:47;26.02;;;18.27;;
43801;SDS011;29429;51.074;13.764;2024-02-16T06:39:15;26.40;;;18.35;;
43801;SDS011;29429;51.074;13.764;2024-02-16T06:41:45;26.38;;;17.63;;
43801;SDS011;29429;51.074;13.764;2024-02-16T06:44:13;26.73;;;17.45;;
43801;SDS011;29429;51.074;13.764;2024-02-16T06:46:41;26.52;;;17.75;;
43801;SDS011;29429;51.074;13.764;2024-02-16T06:49:09;27.65;;;18.10;;
43801;SDS011;29429;51.074;13.764;2024-02-16T06:51:36;25.85;;;18.30;;
43801;SDS011;29429;51.074;13.764;2024-02-16T06:54:04;23.75;;;16.70;;
43801;SDS011;29429;51.074;13.764;2024-02-16T06:59:09;27.77;;;18.58;;
43801;SDS011;29429;51.074;13.764;2024-02-16T07:01:35;28.48;;;18.80;;
43801;SDS011;29429;51.074;13.764;2024-02-16T07:04:03;28.10;;;18.30;;
43801;SDS011;29429;51.074;13.764;2024-02-16T07:06:30;28.88;;;19.27;;
43801;SDS011;29429;51.074;13.764;2024-02-16T07:08:57;27.33;;;18.67;;
43801;SDS011;29429;51.074;13.764;2024-02-16T07:11:24;29.45;;;18.77;;
43801;SDS011;29429;51.074;13.764;2024-02-16T07:13:51;27.95;;;18.27;;
43801;SDS011;29429;51.074;13.764;2024-02-16T07:16:18;27.67;;;18.08;;
43801;SDS011;29429;51.074;13.764;2024-02-16T07:18:45;25.98;;;18.27;;
43801;SDS011;29429;51.074;13.764;2024-02-16T07:21:13;26.83;;;18.55;;
43801;SDS011;29429;51.074;13.764;2024-02-16T07:23:40;26.10;;;18.77;;
43801;SDS011;29429;51.074;13.764;2024-02-16T07:26:07;28.55;;;19.27;;
43801;SDS011;29429;51.074;13.764;2024-02-16T07:28:34;29.30;;;18.77;;
43801;SDS011;29429;51.074;13.764;2024-02-16T07:31:01;26.58;;;18.90;;
43801;SDS011;29429;51.074;13.764;2024-02-16T07:33:29;27.45;;;18.20;;
43801;SDS011;29429;51.074;13.764;2024-02-16T07:35:57;29.13;;;19.33;;
43801;SDS011;29429;51.074;13.764;2024-02-16T07:38:24;26.40;;;17.13;;
43801;SDS011;29429;51.074;13.764;2024-02-16T07:40:51;23.58;;;16.60;;
43801;SDS011;29429;51.074;13.764;2024-02-16T07:43:18;25.40;;;17.08;;
43801;SDS011;29429;51.074;13.764;2024-02-16T07:45:45;26.63;;;17.88;;
43801;SDS011;29429;51.074;13.764;2024-02-16T07:48:13;25.30;;;17.00;;
43801;SDS011;29429;51.074;13.764;2024-02-16T07:50:40;26.40;;;17.35;;
43801;SDS011;29429;51.074;13.764;2024-02-16T07:53:08;27.60;;;17.67;;
43801;SDS011;29429;51.074;13.764;2024-02-16T07:55:36;25.67;;;17.67;;
43801;SDS011;29429;51.074;13.764;2024-02-16T07:58:03;26.33;;;17.90;;
43801;SDS011;29429;51.074;13.764;2024-02-16T08:00:30;27.73;;;17.58;;
43801;SDS011;29429;51.074;13.764;2024-02-16T08:02:58;26.20;;;17.75;;
43801;SDS011;29429;51.074;13.764;2024-02-16T08:05:25;21.85;;;15.77;;
43801;SDS011;29429;51.074;13.764;2024-02-16T08:07:53;22.05;;;16.20;;
43801;SDS011;29429;51.074;13.764;2024-02-16T08:10:21;22.42;;;15.85;;
43801;SDS011;29429;51.074;13.764;2024-02-16T08:12:49;25.27;;;17.17;;
43801;SDS011;29429;51.074;13.764;2024-02-16T08:15:17;24.13;;;16.23;;
43801;SDS011;29429;51.074;13.764;2024-02-16T08:17:51;21.67;;;15.18;;
43801;SDS011;29429;51.074;13.764;2024-02-16T08:20:19;21.55;;;15.88;;
43801;SDS011;29429;51.074;13.764;2024-02-16T08:22:47;21.80;;;15.88;;
43801;SDS011;29429;51.074;13.764;2024-02-16T08:25:14;21.73;;;15.13;;
43801;SDS011;29429;51.074;13.764;2024-02-16T08:27:41;21.27;;;15.38;;
43801;SDS011;29429;51.074;13.764;2024-02-16T08:30:08;22.55;;;15.10;;
43801;SDS011;29429;51.074;13.764;2024-02-16T08:32:36;22.15;;;16.20;;
43801;SDS011;29429;51.074;13.764;2024-02-16T08:35:03;21.55;;;15.18;;
43801;SDS011;29429;51.074;13.764;2024-02-16T08:37:31;22.08;;;15.15;;
43801;SDS011;29429;51.074;13.764;2024-02-16T08:39:59;22.17;;;14.55;;
43801;SDS011;29429;51.074;13.764;2024-02-16T08:42:27;23.45;;;15.55;;
43801;SDS011;29429;51.074;13.764;2024-02-16T08:44:54;20.63;;;15.15;;
43801;SDS011;29429;51.074;13.764;2024-02-16T08:47:21;18.85;;;14.50;;
43801;SDS011;29429;51.074;13.764;2024-02-16T08:49:48;21.52;;;15.25;;
43801;SDS011;29429;51.074;13.764;2024-02-16T08:52:15;21.42;;;15.65;;
43801;SDS011;29429;51.074;13.764;2024-02-16T08:54:43;24.20;;;15.68;;
43801;SDS011;29429;51.074;13.764;2024-02-16T08:57:10;20.90;;;15.38;;
43801;SDS011;29429;51.074;13.764;2024-02-16T08:59:38;23.83;;;17.08;;
43801;SDS011;29429;51.074;13.764;2024-02-16T09:02:05;26.20;;;16.88;;
43801;SDS011;29429;51.074;13.764;2024-02-16T09:04:33;22.05;;;15.65;;
43801;SDS011;29429;51.074;13.764;2024-02-16T09:07:00;21.17;;;15.85;;
43801;SDS011;29429;51.074;13.764;2024-02-16T09:09:27;21.65;;;15.02;;
43801;SDS011;29429;51.074;13.764;2024-02-16T09:11:55;21.58;;;15.77;;
43801;SDS011;29429;51.074;13.764;2024-02-16T09:14:22;20.20;;;14.55;;
43801;SDS011;29429;51.074;13.764;2024-02-16T09:16:49;19.90;;;14.48;;
43801;SDS011;29429;51.074;13.764;2024-02-16T09:19:19;21.42;;;15.63;;
43801;SDS011;29429;51.074;13.764;2024-02-16T09:21:46;20.30;;;14.73;;
43801;SDS011;29429;51.074;13.764;2024-02-16T09:24:15;19.90;;;15.00;;
43801;SDS011;29429;51.074;13.764;2024-02-16T09:26:44;20.52;;;16.00;;
43801;SDS011;29429;51.074;13.764;2024-02-16T09:29:13;19.67;;;14.43;;
43801;SDS011;29429;51.074;13.764;2024-02-16T09:31:40;23.92;;;16.60;;
43801;SDS011;29429;51.074;13.764;2024-02-16T09:34:08;21.30;;;15.57;;
43801;SDS011;29429;51.074;13.764;2024-02-16T09:36:36;22.63;;;15.80;;
43801;SDS011;29429;51.074;13.764;2024-02-16T09:39:03;19.23;;;14.55;;
43801;SDS011;29429;51.074;13.764;2024-02-16T09:41:33;19.42;;;15.15;;
43801;SDS011;29429;51.074;13.764;2024-02-16T09:44:04;21.48;;;14.75;;
43801;SDS011;29429;51.074;13.764;2024-02-16T09:46:33;24.80;;;14.68;;
43801;SDS011;29429;51.074;13.764;2024-02-16T09:49:03;19.48;;;14.77;;
43801;SDS011;29429;51.074;13.764;2024-02-16T09:51:31;21.45;;;15.40;;
43801;SDS011;29429;51.074;13.764;2024-02-16T09:54:03;20.20;;;14.52;;
43801;SDS011;29429;51.074;13.764;2024-02-16T09:56:31;19.40;;;14.23;;
43801;SDS011;29429;51.074;13.764;2024-02-16T09:58:59;18.73;;;13.73;;
43801;SDS011;29429;51.074;13.764;2024-02-16T10:01:26;19.90;;;13.18;;
43801;SDS011;29429;51.074;13.764;2024-02-16T10:03:59;17.80;;;12.95;;
43801;SDS011;29429;51.074;13.764;2024-02-16T10:06:45;19.70;;;12.90;;
43801;SDS011;29429;51.074;13.764;2024-02-16T10:09:24;19.50;;;12.27;;
43801;SDS011;29429;51.074;13.764;2024-02-16T10:11:55;18.73;;;12.88;;
43801;SDS011;29429;51.074;13.764;2024-02-16T10:14:23;18.42;;;14.05;;
43801;SDS011;29429;51.074;13.764;2024-02-16T10:17:04;16.45;;;12.60;;
43801;SDS011;29429;51.074;13.764;2024-02-16T10:19:33;16.75;;;12.63;;
43801;SDS011;29429;51.074;13.764;2024-02-16T10:22:12;17.80;;;12.82;;
43801;SDS011;29429;51.074;13.764;2024-02-16T10:24:40;18.48;;;13.55;;
43801;SDS011;29429;51.074;13.764;2024-02-16T10:27:18;17.63;;;12.85;;
43801;SDS011;29429;51.074;13.764;2024-02-16T10:29:47;20.75;;;12.63;;
43801;SDS011;29429;51.074;13.764;2024-02-16T10:32:16;18.40;;;12.93;;
43801;SDS011;29429;51.074;13.764;2024-02-16T10:34:45;17.83;;;13.02;;
43801;SDS011;29429;51.074;13.764;2024-02-16T10:37:13;18.75;;;14.07;;
43801;SDS011;29429;51.074;13.764;2024-02-16T10:39:42;17.27;;;14.05;;
43801;SDS011;29429;51.074;13.764;2024-02-16T10:42:11;19.50;;;15.02;;
43801;SDS011;29429;51.074;13.764;2024-02-16T10:44:40;16.67;;;13.15;;
43801;SDS011;29429;51.074;13.764;2024-02-16T10:47:09;19.20;;;14.57;;
43801;SDS011;29429;51.074;13.764;2024-02-16T10:49:36;20.20;;;14.27;;
43801;SDS011;29429;51.074;13.764;2024-02-16T10:52:04;23.13;;;14.95;;
43801;SDS011;29429;51.074;13.764;2024-02-16T10:54:33;22.67;;;15.65;;
43801;SDS011;29429;51.074;13.764;2024-02-16T10:57:01;22.27;;;15.45;;
43801;SDS011;29429;51.074;13.764;2024-02-16T10:59:37;20.52;;;14.82;;
43801;SDS011;29429;51.074;13.764;2024-02-16T11:02:12;20.40;;;15.73;;
43801;SDS011;29429;51.074;13.764;2024-02-16T11:04:40;18.60;;;14.98;;
43801;SDS011;29429;51.074;13.764;2024-02-16T11:07:16;20.63;;;15.20;;
43801;SDS011;29429;51.074;13.764;2024-02-16T11:09:46;21.98;;;15.10;;
43801;SDS011;29429;51.074;13.764;2024-02-16T11:12:14;21.60;;;15.13;;
43801;SDS011;29429;51.074;13.764;2024-02-16T11:14:44;19.17;;;14.98;;
43801;SDS011;29429;51.074;13.764;2024-02-16T11:17:13;20.70;;;15.80;;
43801;SDS011;29429;51.074;13.764;2024-02-16T11:19:49;19.48;;;14.48;;
43801;SDS011;29429;51.074;13.764;2024-02-16T11:22:17;20.27;;;15.27;;
43801;SDS011;29429;51.074;13.764;2024-02-16T11:24:47;19.33;;;14.20;;
43801;SDS011;29429;51.074;13.764;2024-02-16T11:27:16;20.15;;;15.75;;
43801;SDS011;29429;51.074;13.764;2024-02-16T11:29:49;21.02;;;15.15;;
43801;SDS011;29429;51.074;13.764;2024-02-16T11:32:20;18.35;;;14.48;;
43801;SDS011;29429;51.074;13.764;2024-02-16T11:34:47;17.63;;;14.20;;
43801;SDS011;29429;51.074;13.764;2024-02-16T11:37:15;19.40;;;15.00;;
43801;SDS011;29429;51.074;13.764;2024-02-16T11:39:43;18.38;;;13.73;;
43801;SDS011;29429;51.074;13.764;2024-02-16T11:42:13;18.65;;;12.98;;
43801;SDS011;29429;51.074;13.764;2024-02-16T11:44:52;20.13;;;13.70;;
43801;SDS011;29429;51.074;13.764;2024-02-16T11:47:23;18.50;;;13.52;;
43801;SDS011;29429;51.074;13.764;2024-02-16T11:50:04;19.50;;;14.38;;
43801;SDS011;29429;51.074;13.764;2024-02-16T11:52:38;19.85;;;13.60;;
43801;SDS011;29429;51.074;13.764;2024-02-16T11:55:09;18.60;;;14.15;;
43801;SDS011;29429;51.074;13.764;2024-02-16T11:57:38;18.83;;;14.73;;
43801;SDS011;29429;51.074;13.764;2024-02-16T12:00:05;18.15;;;14.57;;
43801;SDS011;29429;51.074;13.764;2024-02-16T12:02:35;18.65;;;13.88;;
43801;SDS011;29429;51.074;13.764;2024-02-16T12:05:03;18.73;;;14.05;;
43801;SDS011;29429;51.074;13.764;2024-02-16T12:07:31;17.73;;;13.38;;
43801;SDS011;29429;51.074;13.764;2024-02-16T12:10:01;17.88;;;13.50;;
43801;SDS011;29429;51.074;13.764;2024-02-16T12:12:33;17.58;;;13.27;;
43801;SDS011;29429;51.074;13.764;2024-02-16T12:15:01;19.05;;;13.90;;
43801;SDS011;29429;51.074;13.764;2024-02-16T12:17:29;17.48;;;13.05;;
43801;SDS011;29429;51.074;13.764;2024-02-16T12:19:56;19.85;;;13.68;;
43801;SDS011;29429;51.074;13.764;2024-02-16T12:22:23;17.75;;;13.48;;
43801;SDS011;29429;51.074;13.764;2024-02-16T12:24:50;18.52;;;12.80;;
43801;SDS011;29429;51.074;13.764;2024-02-16T12:27:17;17.42;;;13.38;;
43801;SDS011;29429;51.074;13.764;2024-02-16T12:29:45;17.95;;;12.73;;
43801;SDS011;29429;51.074;13.764;2024-02-16T12:32:13;15.32;;;11.85;;
43801;SDS011;29429;51.074;13.764;2024-02-16T12:34:45;17.23;;;12.68;;
43801;SDS011;29429;51.074;13.764;2024-02-16T12:37:13;14.18;;;11.48;;
43801;SDS011;29429;51.074;13.764;2024-02-16T12:39:40;14.63;;;11.10;;
43801;SDS011;29429;51.074;13.764;2024-02-16T12:42:07;18.33;;;12.93;;
43801;SDS011;29429;51.074;13.764;2024-02-16T12:44:35;15.73;;;11.75;;
43801;SDS011;29429;51.074;13.764;2024-02-16T12:47:02;16.67;;;12.63;;
43801;SDS011;29429;51.074;13.764;2024-02-16T12:49:29;19.58;;;12.75;;
43801;SDS011;29429;51.074;13.764;2024-02-16T12:51:57;16.85;;;12.10;;
43801;SDS011;29429;51.074;13.764;2024-02-16T12:54:24;17.02;;;11.88;;
43801;SDS011;29429;51.074;13.764;2024-02-16T12:56:51;14.73;;;11.85;;
43801;SDS011;29429;51.074;13.764;2024-02-16T12:59:19;16.60;;;11.90;;
43801;SDS011;29429;51.074;13.764;2024-02-16T13:01:46;16.45;;;11.75;;
43801;SDS011;29429;51.074;13.764;2024-02-16T13:04:13;15.80;;;11.60;;
43801;SDS011;29429;51.074;13.764;2024-02-16T13:06:48;15.20;;;11.25;;
43801;SDS011;29429;51.074;13.764;2024-02-16T13:09:17;16.20;;;11.38;;
43801;SDS011;29429;51.074;13.764;2024-02-16T13:11:44;17.15;;;12.43;;
43801;SDS011;29429;51.074;13.764;2024-02-16T13:14:11;14.80;;;10.30;;
43801;SDS011;29429;51.074;13.764;2024-02-16T13:16:39;13.75;;;10.27;;
43801;SDS011;29429;51.074;13.764;2024-02-16T13:19:05;13.60;;;9.07;;
43801;SDS011;29429;51.074;13.764;2024-02-16T13:21:32;13.68;;;9.55;;
43801;SDS011;29429;51.074;13.764;2024-02-16T13:24:01;12.95;;;10.10;;
43801;SDS011;29429;51.074;13.764;2024-02-16T13:26:28;13.63;;;10.15;;
43801;SDS011;29429;51.074;13.764;2024-02-16T13:28:56;14.50;;;10.30;;
43801;SDS011;29429;51.074;13.764;2024-02-16T13:31:24;12.70;;;10.10;;
43801;SDS011;29429;51.074;13.764;2024-02-16T13:33:53;13.90;;;10.10;;
43801;SDS011;29429;51.074;13.764;2024-02-16T13:36:21;13.77;;;10.07;;
43801;SDS011;29429;51.074;13.764;2024-02-16T13:38:48;15.30;;;10.68;;
43801;SDS011;29429;51.074;13.764;2024-02-16T13:41:15;15.75;;;11.10;;
43801;SDS011;29429;51.074;13.764;2024-02-16T13:43:46;13.82;;;10.70;;
43801;SDS011;29429;51.074;13.764;2024-02-16T13:46:13;14.38;;;10.30;;
43801;SDS011;29429;51.074;13.764;2024-02-16T13:48:41;13.52;;;10.55;;
43801;SDS011;29429;51.074;13.764;2024-02-16T13:51:08;15.48;;;10.90;;
43801;SDS011;29429;51.074;13.764;2024-02-16T13:53:35;15.15;;;11.80;;
43801;SDS011;29429;51.074;13.764;2024-02-16T13:56:03;13.85;;;11.00;;
43801;SDS011;29429;51.074;13.764;2024-02-16T13:58:32;13.70;;;10.60;;
43801;SDS011;29429;51.074;13.764;2024-02-16T14:01:01;15.23;;;11.32;;
43801;SDS011;29429;51.074;13.764;2024-02-16T14:03:32;16.02;;;12.00;;
43801;SDS011;29429;51.074;13.764;2024-02-16T14:06:00;14.60;;;11.43;;
43801;SDS011;29429;51.074;13.764;2024-02-16T14:08:28;15.00;;;11.85;;
43801;SDS011;29429;51.074;13.764;2024-02-16T14:10:55;16.42;;;12.10;;
43801;SDS011;29429;51.074;13.764;2024-02-16T14:13:22;15.48;;;12.32;;
43801;SDS011;29429;51.074;13.764;2024-02-16T14:15:51;16.80;;;12.52;;
43801;SDS011;29429;51.074;13.764;2024-02-16T14:18:18;20.50;;;12.90;;